createdAt,value
2023-02-03T00:00:08.926Z,-0.11
2023-02-03T00:02:59.745Z,-0.15
2023-02-03T00:05:28.333Z,-0.17
2023-02-03T00:07:56.396Z,-0.16
2023-02-03T00:10:24.752Z,-0.13
2023-02-03T00:12:53.726Z,-0.13
2023-02-03T00:15:23.209Z,-0.15
2023-02-03T00:17:51.283Z,-0.13
2023-02-03T00:20:19.753Z,-0.13
2023-02-03T00:22:47.912Z,-0.04
2023-02-03T00:25:16.031Z,0.04
2023-02-03T00:27:44.877Z,0.12
2023-02-03T00:30:13.331Z,0.12
2023-02-03T00:32:41.391Z,0.10
2023-02-03T00:35:09.427Z,0.10
2023-02-03T00:37:38.143Z,0.11
2023-02-03T00:40:07.059Z,0.15
2023-02-03T00:42:35.898Z,0.12
2023-02-03T00:45:04.388Z,0.12
2023-02-03T00:47:32.411Z,0.12
2023-02-03T00:50:00.422Z,0.13
2023-02-03T00:52:28.416Z,0.11
2023-02-03T00:54:56.913Z,0.14
2023-02-03T00:57:25.103Z,0.17
2023-02-03T00:59:54.260Z,0.19
2023-02-03T01:02:22.669Z,0.20
2023-02-03T01:04:50.748Z,0.21
2023-02-03T01:07:19.169Z,0.23
2023-02-03T01:09:47.134Z,0.25
2023-02-03T01:12:15.130Z,0.27
2023-02-03T01:14:43.235Z,0.26
2023-02-03T01:17:11.322Z,0.27
2023-02-03T01:19:39.316Z,0.29
2023-02-03T01:22:07.342Z,0.29
2023-02-03T01:24:35.395Z,0.29
2023-02-03T01:27:03.476Z,0.30
2023-02-03T01:29:31.693Z,0.31
2023-02-03T01:31:59.875Z,0.31
2023-02-03T01:34:29.071Z,0.32
2023-02-03T01:36:57.179Z,0.32
2023-02-03T01:39:26.385Z,0.33
2023-02-03T01:41:56.475Z,0.35
2023-02-03T01:44:49.399Z,0.32
2023-02-03T01:47:38.893Z,0.37
2023-02-03T01:50:11.502Z,0.39
2023-02-03T01:52:44.210Z,0.39
2023-02-03T01:55:20.835Z,0.40
2023-02-03T01:58:08.840Z,0.38
2023-02-03T02:00:36.968Z,0.38
2023-02-03T02:03:07.702Z,0.39
2023-02-03T02:05:46.129Z,0.41
2023-02-03T02:08:18.062Z,0.39
2023-02-03T02:10:46.348Z,0.38
2023-02-03T02:13:16.613Z,0.41
2023-02-03T02:16:04.174Z,0.41
2023-02-03T02:18:56.560Z,0.44
2023-02-03T02:21:55.265Z,0.46
2023-02-03T02:24:44.295Z,0.46
2023-02-03T02:28:13.892Z,0.47
2023-02-03T02:31:04.565Z,0.48
2023-02-03T02:34:13.591Z,0.46
2023-02-03T02:37:53.047Z,0.46
2023-02-03T02:40:52.355Z,0.46
2023-02-03T02:44:01.082Z,0.44
2023-02-03T02:46:42.854Z,0.44
2023-02-03T02:49:27.056Z,0.48
2023-02-03T02:51:59.081Z,0.49
2023-02-03T02:54:30.678Z,0.48
2023-02-03T02:57:05.005Z,0.51
2023-02-03T02:59:33.268Z,0.51
2023-02-03T03:02:02.148Z,0.49
2023-02-03T03:04:33.881Z,0.49
2023-02-03T03:07:10.450Z,0.49
2023-02-03T03:09:44.172Z,0.51
2023-02-03T03:12:40.173Z,0.54
2023-02-03T03:15:20.496Z,0.53
2023-02-03T03:17:59.289Z,0.56
2023-02-03T03:20:28.763Z,0.58
2023-02-03T03:23:07.638Z,0.62
2023-02-03T03:25:44.155Z,0.65
2023-02-03T03:28:24.025Z,0.60
2023-02-03T03:30:52.757Z,0.49
2023-02-03T03:33:22.487Z,0.55
2023-02-03T03:36:01.980Z,0.61
2023-02-03T03:38:42.355Z,0.52
2023-02-03T03:41:28.649Z,0.54
2023-02-03T03:44:02.262Z,0.67
2023-02-03T03:46:40.209Z,0.73
2023-02-03T03:49:10.728Z,0.71
2023-02-03T03:51:47.050Z,0.73
2023-02-03T03:54:20.521Z,0.73
2023-02-03T03:56:58.245Z,0.77
2023-02-03T03:59:31.718Z,0.80
2023-02-03T04:02:04.918Z,0.74
2023-02-03T04:04:36.918Z,0.51
2023-02-03T04:07:05.132Z,0.32
2023-02-03T04:09:36.661Z,0.42
2023-02-03T04:12:06.499Z,0.52
2023-02-03T04:14:38.904Z,0.63
2023-02-03T04:17:07.134Z,0.60
2023-02-03T04:19:35.207Z,0.43
2023-02-03T04:22:03.278Z,0.34
2023-02-03T04:24:31.357Z,0.42
2023-02-03T04:26:59.336Z,0.47
2023-02-03T04:29:27.236Z,0.58
2023-02-03T04:31:55.294Z,0.61
2023-02-03T04:34:23.321Z,0.55
2023-02-03T04:36:51.329Z,0.56
2023-02-03T04:39:19.351Z,0.58
2023-02-03T04:41:47.327Z,0.67
2023-02-03T04:44:15.246Z,0.75
2023-02-03T04:46:43.200Z,0.77
2023-02-03T04:49:11.710Z,0.70
2023-02-03T04:51:39.799Z,0.60
2023-02-03T04:54:08.009Z,0.62
2023-02-03T04:56:36.938Z,0.71
2023-02-03T04:59:04.923Z,0.65
2023-02-03T05:01:32.965Z,0.69
2023-02-03T05:04:00.982Z,0.76
2023-02-03T05:06:30.008Z,0.74
2023-02-03T05:08:58.286Z,0.83
2023-02-03T05:11:26.767Z,0.84
2023-02-03T05:13:55.753Z,0.80
2023-02-03T05:16:23.973Z,0.82
2023-02-03T05:18:51.954Z,0.89
2023-02-03T05:21:19.995Z,0.86
2023-02-03T05:23:48.037Z,0.90
2023-02-03T05:26:16.234Z,0.97
2023-02-03T05:28:44.270Z,0.93
2023-02-03T05:31:12.337Z,0.95
2023-02-03T05:33:40.356Z,1.01
2023-02-03T05:36:09.394Z,0.83
2023-02-03T05:38:37.487Z,0.75
2023-02-03T05:41:24.514Z,0.82
2023-02-03T05:43:52.800Z,0.84
2023-02-03T05:46:20.803Z,0.90
2023-02-03T05:48:48.826Z,0.82
2023-02-03T05:51:16.815Z,0.91
2023-02-03T05:53:44.813Z,0.90
2023-02-03T05:56:12.832Z,0.94
2023-02-03T05:58:40.808Z,0.87
2023-02-03T06:01:08.828Z,0.77
2023-02-03T06:03:36.920Z,0.88
2023-02-03T06:06:05.043Z,0.96
2023-02-03T06:08:33.060Z,0.93
2023-02-03T06:11:01.147Z,0.77
2023-02-03T06:13:29.255Z,0.85
2023-02-03T06:15:57.353Z,0.93
2023-02-03T06:18:25.457Z,0.99
2023-02-03T06:20:53.542Z,1.02
2023-02-03T06:23:21.524Z,0.96
2023-02-03T06:25:51.209Z,1.02
2023-02-03T06:28:19.321Z,0.99
2023-02-03T06:30:51.963Z,1.00
2023-02-03T06:33:20.435Z,1.08
2023-02-03T06:35:48.381Z,1.17
2023-02-03T06:38:16.469Z,1.12
2023-02-03T06:40:48.041Z,1.18
2023-02-03T06:43:16.101Z,1.21
2023-02-03T06:45:47.435Z,1.22
2023-02-03T06:48:15.593Z,1.15
2023-02-03T06:50:46.918Z,1.12
2023-02-03T06:53:16.245Z,1.10
2023-02-03T06:55:44.212Z,1.19
2023-02-03T06:58:12.219Z,1.25
2023-02-03T07:00:40.346Z,1.25
2023-02-03T07:03:08.429Z,1.34
2023-02-03T07:05:36.861Z,1.31
2023-02-03T07:08:05.155Z,1.31
2023-02-03T07:10:33.138Z,1.30
2023-02-03T07:13:06.757Z,1.24
2023-02-03T07:15:36.273Z,1.23
2023-02-03T07:18:04.501Z,1.34
2023-02-03T07:20:32.986Z,1.39
2023-02-03T07:23:01.078Z,1.46
2023-02-03T07:25:29.174Z,1.54
2023-02-03T07:27:57.343Z,1.63
2023-02-03T07:30:25.419Z,1.69
2023-02-03T07:32:53.845Z,1.55
2023-02-03T07:35:22.114Z,1.35
2023-02-03T07:37:50.162Z,1.32
2023-02-03T07:40:18.737Z,1.30
2023-02-03T07:42:49.881Z,1.37
2023-02-03T07:45:19.203Z,1.40
2023-02-03T07:47:47.243Z,1.39
2023-02-03T07:50:15.471Z,1.46
2023-02-03T07:52:43.820Z,1.44
2023-02-03T07:55:12.038Z,1.46
2023-02-03T07:57:43.364Z,1.55
2023-02-03T08:00:15.595Z,1.69
2023-02-03T08:02:44.091Z,1.72
2023-02-03T08:05:13.025Z,1.77
2023-02-03T08:07:41.813Z,1.82
2023-02-03T08:10:12.989Z,1.89
2023-02-03T08:12:45.111Z,1.78
2023-02-03T08:15:14.523Z,1.86
2023-02-03T08:17:44.417Z,1.83
2023-02-03T08:20:12.857Z,1.71
2023-02-03T08:22:40.901Z,1.84
2023-02-03T08:25:09.859Z,1.71
2023-02-03T08:27:38.833Z,1.64
2023-02-03T08:30:11.584Z,1.51
2023-02-03T08:32:39.569Z,1.56
2023-02-03T08:35:08.313Z,1.65
2023-02-03T08:37:36.543Z,1.80
2023-02-03T08:40:06.398Z,1.80
2023-02-03T08:42:34.448Z,1.89
2023-02-03T08:45:05.092Z,1.89
2023-02-03T08:47:33.389Z,1.79
2023-02-03T08:50:01.358Z,1.78
2023-02-03T08:52:29.421Z,1.88
2023-02-03T08:54:57.431Z,1.77
2023-02-03T08:57:25.431Z,1.81
2023-02-03T08:59:54.577Z,1.78
2023-02-03T09:02:22.607Z,1.70
2023-02-03T09:04:51.971Z,1.69
2023-02-03T09:07:20.223Z,1.78
2023-02-03T09:09:48.284Z,1.78
2023-02-03T09:12:16.754Z,1.86
2023-02-03T09:14:44.758Z,2.00
2023-02-03T09:17:12.743Z,1.93
2023-02-03T09:19:40.817Z,1.90
2023-02-03T09:22:08.974Z,1.86
2023-02-03T09:24:37.247Z,1.79
2023-02-03T09:27:05.312Z,1.79
2023-02-03T09:29:33.505Z,1.82
2023-02-03T09:32:07.007Z,1.95
2023-02-03T09:34:35.174Z,2.08
2023-02-03T09:37:04.387Z,2.20
2023-02-03T09:39:32.807Z,2.18
2023-02-03T09:42:28.710Z,2.07
2023-02-03T09:45:24.498Z,1.99
2023-02-03T09:47:55.461Z,2.00
2023-02-03T09:50:31.751Z,2.04
2023-02-03T09:53:06.498Z,2.07
2023-02-03T09:55:43.176Z,2.17
2023-02-03T09:58:21.324Z,2.35
2023-02-03T10:01:07.573Z,2.27
2023-02-03T10:03:48.382Z,2.17
2023-02-03T10:06:46.841Z,2.15
2023-02-03T10:09:57.610Z,2.14
2023-02-03T10:12:45.502Z,2.09
2023-02-03T10:15:43.829Z,2.00
2023-02-03T10:18:23.331Z,1.95
2023-02-03T10:21:00.248Z,1.96
2023-02-03T10:23:36.765Z,2.06
2023-02-03T10:26:15.823Z,2.10
2023-02-03T10:29:18.488Z,2.18
2023-02-03T10:31:47.730Z,1.97
2023-02-03T10:34:19.651Z,1.93
2023-02-03T10:36:56.216Z,1.92
2023-02-03T10:39:39.805Z,2.03
2023-02-03T10:42:10.798Z,2.01
2023-02-03T10:44:49.065Z,2.22
2023-02-03T10:47:42.861Z,2.40
2023-02-03T10:50:25.729Z,2.36
2023-02-03T10:53:13.893Z,2.24
2023-02-03T10:55:41.899Z,2.41
2023-02-03T10:58:34.174Z,2.56
2023-02-03T11:01:12.145Z,2.64
2023-02-03T11:04:04.003Z,2.65
2023-02-03T11:06:34.298Z,2.72
2023-02-03T11:09:02.933Z,2.73
2023-02-03T11:11:34.257Z,2.75
2023-02-03T11:14:02.200Z,2.79
2023-02-03T11:16:38.426Z,2.85
2023-02-03T11:19:20.847Z,2.92
2023-02-03T11:21:52.477Z,3.01
2023-02-03T11:24:39.582Z,3.08
2023-02-03T11:27:15.568Z,3.14
2023-02-03T11:29:50.391Z,3.17
2023-02-03T11:32:24.216Z,3.24
2023-02-03T11:35:02.235Z,3.35
2023-02-03T11:37:41.959Z,3.45
2023-02-03T11:40:11.455Z,3.52
2023-02-03T11:42:42.925Z,3.61
2023-02-03T11:45:29.292Z,3.75
2023-02-03T11:48:01.103Z,3.78
2023-02-03T11:50:40.924Z,3.82
2023-02-03T11:53:59.126Z,3.89
2023-02-03T11:57:13.947Z,3.84
2023-02-03T11:59:52.970Z,3.98
2023-02-03T12:03:01.030Z,4.03
2023-02-03T12:05:54.537Z,4.07
2023-02-03T12:08:49.405Z,4.12
2023-02-03T12:11:38.871Z,4.15
2023-02-03T12:14:36.593Z,4.17
2023-02-03T12:17:37.772Z,4.18
2023-02-03T12:20:29.247Z,4.31
2023-02-03T12:23:19.901Z,4.54
2023-02-03T12:26:32.486Z,4.75
2023-02-03T12:29:24.764Z,4.99
2023-02-03T12:32:01.680Z,5.11
2023-02-03T12:35:20.603Z,5.32
2023-02-03T12:37:58.928Z,5.55
2023-02-03T12:40:42.970Z,5.60
2023-02-03T12:43:17.081Z,5.65
2023-02-03T12:46:00.972Z,5.74
2023-02-03T12:48:38.936Z,5.70
2023-02-03T12:51:15.095Z,5.69
2023-02-03T12:53:51.907Z,5.73
2023-02-03T12:56:29.572Z,5.73
2023-02-03T12:59:06.696Z,5.75
2023-02-03T13:02:01.505Z,5.82
2023-02-03T13:04:41.629Z,5.92
2023-02-03T13:07:27.509Z,5.90
2023-02-03T13:10:24.883Z,5.85
2023-02-03T13:13:00.007Z,5.83
2023-02-03T13:15:37.360Z,5.83
2023-02-03T13:18:29.519Z,5.76
2023-02-03T13:20:57.912Z,5.67
2023-02-03T13:23:26.818Z,5.63
2023-02-03T13:26:24.643Z,5.59
2023-02-03T13:29:08.183Z,5.66
2023-02-03T13:32:10.995Z,5.72
2023-02-03T13:35:21.603Z,5.69
2023-02-03T13:38:05.515Z,5.64
2023-02-03T13:41:18.236Z,5.66
2023-02-03T13:43:52.472Z,5.63
2023-02-03T13:46:31.467Z,5.65
2023-02-03T13:49:03.137Z,5.63
2023-02-03T13:51:43.345Z,5.62
2023-02-03T13:54:27.731Z,5.56
2023-02-03T13:57:05.998Z,5.47
2023-02-03T13:59:37.050Z,5.41
2023-02-03T14:02:23.507Z,5.41
2023-02-03T14:04:58.041Z,5.33
2023-02-03T14:07:38.786Z,5.34
2023-02-03T14:10:15.942Z,5.31
2023-02-03T14:12:50.035Z,5.24
2023-02-03T14:15:33.537Z,5.20
2023-02-03T14:18:35.179Z,5.11
2023-02-03T14:21:16.198Z,5.04
2023-02-03T14:23:51.142Z,4.97
2023-02-03T14:26:42.379Z,4.90
2023-02-03T14:29:27.870Z,4.95
2023-02-03T14:32:11.164Z,5.04
2023-02-03T14:34:45.456Z,5.08
2023-02-03T14:37:28.788Z,5.06
2023-02-03T14:40:14.157Z,5.02
2023-02-03T14:43:10.514Z,5.03
2023-02-03T14:46:01.856Z,5.13
2023-02-03T14:48:52.151Z,5.29
2023-02-03T14:51:56.476Z,5.39
2023-02-03T14:54:53.968Z,5.38
2023-02-03T14:57:51.788Z,5.47
2023-02-03T15:00:19.817Z,5.50
2023-02-03T15:03:06.729Z,5.50
2023-02-03T15:05:44.174Z,5.50
2023-02-03T15:08:46.458Z,5.58
2023-02-03T15:11:33.788Z,5.56
2023-02-03T15:14:27.847Z,5.52
2023-02-03T15:17:01.669Z,5.47
2023-02-03T15:19:36.036Z,5.40
2023-02-03T15:22:29.331Z,5.45
2023-02-03T15:25:04.042Z,5.46
2023-02-03T15:27:32.925Z,5.36
2023-02-03T15:30:23.895Z,5.34
2023-02-03T15:33:16.883Z,5.38
2023-02-03T15:35:48.112Z,5.36
2023-02-03T15:38:33.262Z,5.44
2023-02-03T15:41:02.439Z,5.49
2023-02-03T15:43:41.815Z,5.39
2023-02-03T15:46:36.028Z,5.40
2023-02-03T15:49:19.256Z,5.37
2023-02-03T15:51:57.952Z,5.29
2023-02-03T15:54:41.491Z,5.26
2023-02-03T15:57:20.381Z,5.11
2023-02-03T16:00:31.513Z,5.14
2023-02-03T16:03:00.933Z,5.09
2023-02-03T16:05:34.327Z,5.05
2023-02-03T16:08:46.132Z,5.02
2023-02-03T16:11:41.671Z,4.99
2023-02-03T16:14:32.624Z,4.94
2023-02-03T16:17:05.422Z,4.90
2023-02-03T16:19:38.171Z,4.84
2023-02-03T16:22:32.213Z,4.88
2023-02-03T16:25:21.029Z,4.87
2023-02-03T16:28:23.779Z,4.86
2023-02-03T16:31:12.888Z,4.92
2023-02-03T16:34:08.127Z,4.97
2023-02-03T16:37:03.298Z,4.93
2023-02-03T16:39:50.566Z,4.89
2023-02-03T16:42:40.078Z,4.93
2023-02-03T16:45:37.299Z,5.01
2023-02-03T16:48:24.254Z,4.96
2023-02-03T16:50:59.739Z,5.06
2023-02-03T16:53:31.614Z,5.04
2023-02-03T16:56:04.421Z,5.04
2023-02-03T16:58:32.697Z,5.05
2023-02-03T17:01:04.510Z,5.06
2023-02-03T17:03:36.011Z,5.11
2023-02-03T17:06:13.016Z,5.11
2023-02-03T17:08:42.241Z,5.10
2023-02-03T17:11:20.673Z,5.10
2023-02-03T17:13:50.718Z,5.08
2023-02-03T17:16:26.136Z,5.06
2023-02-03T17:18:54.933Z,5.07
2023-02-03T17:21:27.084Z,5.09
2023-02-03T17:23:55.343Z,5.10
2023-02-03T17:26:23.316Z,5.15
2023-02-03T17:28:51.421Z,5.07
2023-02-03T17:31:20.912Z,5.11
2023-02-03T17:33:52.421Z,5.13
2023-02-03T17:36:21.954Z,5.11
2023-02-03T17:55:33.199Z,5.17
2023-02-03T17:58:01.709Z,5.21
2023-02-03T18:00:30.023Z,5.24
2023-02-03T18:02:58.713Z,5.25
2023-02-03T18:05:28.832Z,5.22
2023-02-03T18:07:56.924Z,5.23
2023-02-03T18:10:25.130Z,5.26
2023-02-03T18:12:53.299Z,5.26
2023-02-03T18:15:21.325Z,5.29
2023-02-03T18:17:49.365Z,5.27
2023-02-03T18:20:17.604Z,5.22
2023-02-03T18:22:45.607Z,5.26
2023-02-03T18:25:17.198Z,5.32
2023-02-03T18:27:45.257Z,5.31
2023-02-03T18:30:15.121Z,5.32
2023-02-03T18:32:43.958Z,5.31
2023-02-03T18:35:16.682Z,5.36
2023-02-03T18:37:45.002Z,5.34
2023-02-03T18:40:13.224Z,5.39
2023-02-03T18:42:41.174Z,5.36
2023-02-03T18:45:11.596Z,5.35
2023-02-03T18:47:40.182Z,5.30
2023-02-03T18:50:08.642Z,5.32
2023-02-03T18:52:37.676Z,5.27
2023-02-03T18:55:06.337Z,5.26
2023-02-03T18:57:34.521Z,5.31
2023-02-03T19:00:04.365Z,5.31
2023-02-03T19:02:33.873Z,5.31
2023-02-03T19:05:02.133Z,5.32
2023-02-03T19:07:30.322Z,5.37
2023-02-03T19:09:58.269Z,5.42
2023-02-03T19:12:27.492Z,5.37
2023-02-03T19:14:55.698Z,5.42
2023-02-03T19:17:23.679Z,5.43
2023-02-03T19:19:51.784Z,5.43
2023-02-03T19:22:19.834Z,5.45
2023-02-03T19:24:47.956Z,5.42
2023-02-03T19:27:15.908Z,5.32
2023-02-03T19:29:43.871Z,5.34
2023-02-03T19:32:12.939Z,5.28
2023-02-03T19:34:41.067Z,5.19
2023-02-03T19:37:09.207Z,5.12
2023-02-03T19:39:37.293Z,4.99
2023-02-03T19:42:05.391Z,4.78
2023-02-03T19:44:33.530Z,4.73
2023-02-03T19:47:03.284Z,4.59
2023-02-03T19:49:31.638Z,4.62
2023-02-03T19:52:00.071Z,4.56
2023-02-03T19:54:28.207Z,4.52
2023-02-03T19:56:56.216Z,4.53
2023-02-03T19:59:24.277Z,4.46
2023-02-03T20:01:52.336Z,4.42
2023-02-03T20:04:20.596Z,4.45
2023-02-03T20:06:48.580Z,4.48
2023-02-03T20:09:16.694Z,4.46
2023-02-03T20:11:44.691Z,4.46
2023-02-03T20:14:13.781Z,4.45
2023-02-03T20:16:42.794Z,4.54
2023-02-03T20:19:11.394Z,4.57
2023-02-03T20:21:39.467Z,4.54
2023-02-03T20:24:07.502Z,4.58
2023-02-03T20:26:35.519Z,4.65
2023-02-03T20:29:03.674Z,4.62
2023-02-03T20:31:31.839Z,4.64
2023-02-03T20:33:59.908Z,4.64
2023-02-03T20:36:28.046Z,4.64
2023-02-03T20:38:56.478Z,4.66
2023-02-03T20:41:24.498Z,4.65
2023-02-03T20:43:52.539Z,4.63
2023-02-03T20:46:20.692Z,4.66
2023-02-03T20:48:48.812Z,4.61
2023-02-03T20:51:20.864Z,4.64
2023-02-03T20:53:50.072Z,4.63
2023-02-03T20:56:21.833Z,4.60
2023-02-03T20:58:49.845Z,4.65
2023-02-03T21:01:22.498Z,4.62
2023-02-03T21:04:10.235Z,4.61
2023-02-03T21:06:39.981Z,4.71
2023-02-03T21:09:20.880Z,4.74
2023-02-03T21:11:49.339Z,4.71
2023-02-03T21:14:29.593Z,4.62
2023-02-03T21:16:57.819Z,4.63
2023-02-03T21:19:30.136Z,4.62
2023-02-03T21:21:59.059Z,4.59
2023-02-03T21:24:35.459Z,4.54
2023-02-03T21:27:24.721Z,4.64
2023-02-03T21:29:56.422Z,4.52
2023-02-03T21:32:35.466Z,4.34
2023-02-03T21:35:31.794Z,4.31
2023-02-03T21:38:02.644Z,4.25
2023-02-03T21:40:34.973Z,4.10
2023-02-03T21:43:03.385Z,4.09
2023-02-03T21:45:38.395Z,4.02
2023-02-03T21:48:40.398Z,4.11
2023-02-03T21:51:23.450Z,3.94
2023-02-03T21:54:03.854Z,3.87
2023-02-03T21:56:41.729Z,3.81
2023-02-03T21:59:21.094Z,3.81
2023-02-03T22:01:49.776Z,3.77
2023-02-03T22:04:17.783Z,3.85
2023-02-03T22:06:50.467Z,3.82
2023-02-03T22:09:22.358Z,3.78
2023-02-03T22:11:51.707Z,3.75
2023-02-03T22:14:23.655Z,3.64
2023-02-03T22:16:51.623Z,3.66
2023-02-03T22:19:19.640Z,3.71
2023-02-03T22:21:49.700Z,3.66
2023-02-03T22:24:17.772Z,3.69
2023-02-03T22:26:45.714Z,3.74
2023-02-03T22:29:13.737Z,3.68
2023-02-03T22:31:42.798Z,3.54
2023-02-03T22:34:10.976Z,3.51
2023-02-03T22:36:39.222Z,3.37
2023-02-03T22:39:07.317Z,3.32
2023-02-03T22:41:35.265Z,3.29
2023-02-03T22:44:03.339Z,3.31
2023-02-03T22:46:31.302Z,3.31
2023-02-03T22:48:59.391Z,3.27
2023-02-03T22:51:27.394Z,3.15
2023-02-03T22:53:55.366Z,3.15
2023-02-03T22:56:23.758Z,3.08
2023-02-03T22:58:51.832Z,3.08
2023-02-03T23:01:20.006Z,3.04
2023-02-03T23:03:47.970Z,3.07
2023-02-03T23:06:16.037Z,3.05
2023-02-03T23:08:44.027Z,2.98
2023-02-03T23:11:12.036Z,2.89
2023-02-03T23:13:39.972Z,2.88
2023-02-03T23:16:07.946Z,2.93
2023-02-03T23:18:35.939Z,2.85
2023-02-03T23:21:03.996Z,2.77
2023-02-03T23:23:32.097Z,2.47
2023-02-03T23:26:00.108Z,1.81
2023-02-03T23:28:28.138Z,1.24
2023-02-03T23:30:56.414Z,0.95
2023-02-03T23:33:24.599Z,0.77
2023-02-03T23:35:55.256Z,0.76
2023-02-03T23:38:23.286Z,0.63
2023-02-03T23:40:51.270Z,0.66
2023-02-03T23:43:19.214Z,0.77
2023-02-03T23:45:47.526Z,0.63
2023-02-03T23:48:17.676Z,0.48
2023-02-03T23:50:45.671Z,0.48
2023-02-03T23:53:13.588Z,0.44
2023-02-03T23:55:41.515Z,0.57
2023-02-03T23:58:09.425Z,0.55
